Maestro Sea — V7ET4 — position and weather

sailwx.info

Track history (hours):
 
Tides and Currents Weather Stations Pressure Air Temp Water Temp Dewpoint Dewpoint Depression Visibility Wind Speed Wind Dir Waves Ship Positions

Maestro Sea

Last reported at 2018-Feb-21 20:43 UTC. Time now 2018-Feb-26 01:40 UTC.
Position N 55°52' E 016°42'.

Length 160 m; draft 4.7 m.

Type: Ship (hazmat cat A). MMSI: 538001859.

Date/timePositionNaut miles runAvg speedWind from/ knotsBaromVisibWave heightAir tempDewpointWater temp
2018-Feb-21 20:43N 55°52' E 016°42'313.9
2018-Feb-21 20:30N 55°53' E 016°36'714.0
2018-Feb-21 20:00N 55°53' E 016°24'714.3
2018-Feb-21 19:30N 55°53' E 016°11'714.3
2018-Feb-21 19:00N 55°54' E 015°59'714.4
2018-Feb-21 18:30N 55°54' E 015°46'714.2
2018-Feb-21 18:00N 55°56' E 015°34'714.8
2018-Feb-21 17:30N 55°59' E 015°21'714.6
2018-Feb-21 17:00N 56°02' E 015°09'714.5
2018-Feb-21 16:31N 56°05' E 014°58'6 0.8
2018-Feb-21 09:37N 56°07' E 014°49'112.2
2018-Feb-21 09:30N 56°06' E 014°51'714.8
2018-Feb-21 09:00N 56°04' E 015°03'714.7
2018-Feb-21 08:30N 56°01' E 015°15'714.6
2018-Feb-21 08:00N 55°59' E 015°28'714.7
2018-Feb-21 07:30N 55°56' E 015°40'714.4
2018-Feb-21 07:00N 55°56' E 015°53'714.7
2018-Feb-21 06:30N 55°56' E 016°06'  
2018-Feb-14 20:48N 55°52' E 016°41'414.3
2018-Feb-14 20:30N 55°52' E 016°34'714.4
2018-Feb-14 20:00N 55°52' E 016°21'714.1
2018-Feb-14 19:30N 55°53' E 016°08'714.2
2018-Feb-14 19:00N 55°54' E 015°56'714.4
2018-Feb-14 18:30N 55°54' E 015°43'714.3
2018-Feb-14 18:01N 55°57' E 015°31'714.4
2018-Feb-14 17:31N 55°60' E 015°20'714.3
2018-Feb-14 17:01N 56°02' E 015°08'714.2
2018-Feb-14 16:30N 56°05' E 014°56'4 0.5
2018-Feb-14 08:13N 56°07' E 014°49'211.0
2018-Feb-14 08:00N 56°06' E 014°52'713.5
2018-Feb-14 07:30N 56°03' E 015°03'714.4
2018-Feb-14 07:00N 56°01' E 015°15'714.7
2018-Feb-14 06:30N 55°58' E 015°27'714.8
2018-Feb-14 06:00N 55°55' E 015°40'714.2
2018-Feb-14 05:30N 55°54' E 015°52'714.7
2018-Feb-14 05:00N 55°55' E 016°05'714.6
2018-Feb-14 04:30N 55°53' E 016°18'12 0.4
2018-Feb-12 20:42N 55°52' E 016°39'313.9
2018-Feb-12 20:30N 55°53' E 016°34'713.8
2018-Feb-12 20:00N 55°53' E 016°22'713.9
2018-Feb-12 19:30N 55°53' E 016°10'714.2
2018-Feb-12 19:00N 55°54' E 015°57'714.3
2018-Feb-12 18:30N 55°54' E 015°44'713.9
2018-Feb-12 18:01N 55°57' E 015°33'714.1
2018-Feb-12 17:31N 55°59' E 015°21'714.1
2018-Feb-12 17:00N 56°02' E 015°09'714.0
2018-Feb-12 16:30N 56°05' E 014°58'7 1.1
2018-Feb-12 10:31N 56°09' E 014°49'0 1.0
2018-Feb-12 10:30N 56°09' E 014°49'2 5.0
2018-Feb-12 10:01N 56°07' E 014°49'4 7.1
2018-Feb-12 09:31N 56°05' E 014°55'4 8.3
2018-Feb-12 09:00N 56°04' E 015°02'4 8.2
2018-Feb-12 08:30N 56°02' E 015°08'4 8.0
2018-Feb-12 08:00N 56°01' E 015°15'4 8.1
2018-Feb-12 07:30N 55°59' E 015°22'4 8.1
2018-Feb-12 07:00N 55°58' E 015°28'611.8
2018-Feb-12 06:30N 55°55' E 015°38'612.7
2018-Feb-12 06:00N 55°54' E 015°49'712.9
2018-Feb-12 05:30N 55°54' E 016°01'613.2
2018-Feb-12 05:00N 55°53' E 016°12'  
Track history (hours):
 
Tides and Currents Weather Stations Pressure Air Temp Water Temp Dewpoint Dewpoint Depression Visibility Wind Speed Wind Dir Waves Ship Positions

Maestro Sea

Last reported at 2018-Feb-21 20:43 UTC. Time now 2018-Feb-26 01:40 UTC.
Position N 55°52' E 016°42'.

Length 160 m; draft 4.7 m.

Type: Ship (hazmat cat A). MMSI: 538001859.

Date/timePositionNaut miles runAvg speedWind from/ knotsBaromVisibWave heightAir tempDewpointWater temp
2018-Feb-21 20:43N 55°52' E 016°42'313.9
2018-Feb-21 20:30N 55°53' E 016°36'714.0
2018-Feb-21 20:00N 55°53' E 016°24'714.3
2018-Feb-21 19:30N 55°53' E 016°11'714.3
2018-Feb-21 19:00N 55°54' E 015°59'714.4
2018-Feb-21 18:30N 55°54' E 015°46'714.2
2018-Feb-21 18:00N 55°56' E 015°34'714.8
2018-Feb-21 17:30N 55°59' E 015°21'714.6
2018-Feb-21 17:00N 56°02' E 015°09'714.5
2018-Feb-21 16:31N 56°05' E 014°58'6 0.8
2018-Feb-21 09:37N 56°07' E 014°49'112.2
2018-Feb-21 09:30N 56°06' E 014°51'714.8
2018-Feb-21 09:00N 56°04' E 015°03'714.7
2018-Feb-21 08:30N 56°01' E 015°15'714.6
2018-Feb-21 08:00N 55°59' E 015°28'714.7
2018-Feb-21 07:30N 55°56' E 015°40'714.4
2018-Feb-21 07:00N 55°56' E 015°53'714.7
2018-Feb-21 06:30N 55°56' E 016°06'  
2018-Feb-14 20:48N 55°52' E 016°41'414.3
2018-Feb-14 20:30N 55°52' E 016°34'714.4
2018-Feb-14 20:00N 55°52' E 016°21'714.1
2018-Feb-14 19:30N 55°53' E 016°08'714.2
2018-Feb-14 19:00N 55°54' E 015°56'714.4
2018-Feb-14 18:30N 55°54' E 015°43'714.3
2018-Feb-14 18:01N 55°57' E 015°31'714.4
2018-Feb-14 17:31N 55°60' E 015°20'714.3
2018-Feb-14 17:01N 56°02' E 015°08'714.2
2018-Feb-14 16:30N 56°05' E 014°56'4 0.5
2018-Feb-14 08:13N 56°07' E 014°49'211.0
2018-Feb-14 08:00N 56°06' E 014°52'713.5
2018-Feb-14 07:30N 56°03' E 015°03'714.4
2018-Feb-14 07:00N 56°01' E 015°15'714.7
2018-Feb-14 06:30N 55°58' E 015°27'714.8
2018-Feb-14 06:00N 55°55' E 015°40'714.2
2018-Feb-14 05:30N 55°54' E 015°52'714.7
2018-Feb-14 05:00N 55°55' E 016°05'714.6
2018-Feb-14 04:30N 55°53' E 016°18'12 0.4
2018-Feb-12 20:42N 55°52' E 016°39'313.9
2018-Feb-12 20:30N 55°53' E 016°34'713.8
2018-Feb-12 20:00N 55°53' E 016°22'713.9
2018-Feb-12 19:30N 55°53' E 016°10'714.2
2018-Feb-12 19:00N 55°54' E 015°57'714.3
2018-Feb-12 18:30N 55°54' E 015°44'713.9
2018-Feb-12 18:01N 55°57' E 015°33'714.1
2018-Feb-12 17:31N 55°59' E 015°21'714.1
2018-Feb-12 17:00N 56°02' E 015°09'714.0
2018-Feb-12 16:30N 56°05' E 014°58'7 1.1
2018-Feb-12 10:31N 56°09' E 014°49'0 1.0
2018-Feb-12 10:30N 56°09' E 014°49'2 5.0
2018-Feb-12 10:01N 56°07' E 014°49'4 7.1
2018-Feb-12 09:31N 56°05' E 014°55'4 8.3
2018-Feb-12 09:00N 56°04' E 015°02'4 8.2
2018-Feb-12 08:30N 56°02' E 015°08'4 8.0
2018-Feb-12 08:00N 56°01' E 015°15'4 8.1
2018-Feb-12 07:30N 55°59' E 015°22'4 8.1
2018-Feb-12 07:00N 55°58' E 015°28'611.8
2018-Feb-12 06:30N 55°55' E 015°38'612.7
2018-Feb-12 06:00N 55°54' E 015°49'712.9
2018-Feb-12 05:30N 55°54' E 016°01'613.2
2018-Feb-12 05:00N 55°53' E 016°12'  

Dump ship's entire track history